sensor_id;sensor_type;location;lat;lon;timestamp;pressure;altitude;pressure_sealevel;temperature;humidity
38054;BME280;23859;50.672;7.164;2023-10-13T00:01:25;34857.47;;;-140.95;83.30
38054;BME280;23859;50.672;7.164;2023-10-13T00:03:51;34837.38;;;-140.95;83.37
38054;BME280;23859;50.672;7.164;2023-10-13T00:06:18;34869.53;;;-140.95;83.41
38054;BME280;23859;50.672;7.164;2023-10-13T00:08:45;34869.53;;;-140.95;83.51
38054;BME280;23859;50.672;7.164;2023-10-13T00:11:15;34863.50;;;-140.95;83.46
38054;BME280;23859;50.672;7.164;2023-10-13T00:13:42;34847.44;;;-140.95;82.95
38054;BME280;23859;50.672;7.164;2023-10-13T00:16:09;34841.41;;;-140.95;83.02
38054;BME280;23859;50.672;7.164;2023-10-13T00:18:43;34855.47;;;-140.95;82.54
38054;BME280;23859;50.672;7.164;2023-10-13T00:21:10;34833.38;;;-140.95;82.78
38054;BME280;23859;50.672;7.164;2023-10-13T00:23:44;34841.41;;;-140.95;82.55
38054;BME280;23859;50.672;7.164;2023-10-13T00:26:23;34849.44;;;-140.95;82.75
38054;BME280;23859;50.672;7.164;2023-10-13T00:28:52;34855.47;;;-140.95;82.65
38054;BME280;23859;50.672;7.164;2023-10-13T00:31:41;34831.34;;;-140.95;82.39
38054;BME280;23859;50.672;7.164;2023-10-13T00:34:12;34851.44;;;-140.95;82.95
38054;BME280;23859;50.672;7.164;2023-10-13T00:36:54;34839.38;;;-140.95;82.88
38054;BME280;23859;50.672;7.164;2023-10-13T00:39:45;34833.38;;;-140.95;82.78
38054;BME280;23859;50.672;7.164;2023-10-13T00:42:13;34801.22;;;-140.95;82.48
38054;BME280;23859;50.672;7.164;2023-10-13T00:45:08;34853.44;;;-140.95;82.13
38054;BME280;23859;50.672;7.164;2023-10-13T00:47:35;34831.34;;;-140.95;82.35
38054;BME280;23859;50.672;7.164;2023-10-13T00:50:01;34869.53;;;-140.95;82.16
38054;BME280;23859;50.672;7.164;2023-10-13T00:52:27;34831.34;;;-140.95;82.09
38054;BME280;23859;50.672;7.164;2023-10-13T00:54:55;34791.19;;;-140.95;81.88
38054;BME280;23859;50.672;7.164;2023-10-13T00:57:25;34831.34;;;-140.95;81.70
38054;BME280;23859;50.672;7.164;2023-10-13T00:59:52;34819.31;;;-140.95;81.84
38054;BME280;23859;50.672;7.164;2023-10-13T01:02:22;34815.28;;;-140.95;81.59
38054;BME280;23859;50.672;7.164;2023-10-13T01:05:07;34823.31;;;-140.95;81.67
38054;BME280;23859;50.672;7.164;2023-10-13T01:07:36;34819.31;;;-140.95;81.72
38054;BME280;23859;50.672;7.164;2023-10-13T01:10:04;34807.25;;;-140.95;81.62
38054;BME280;23859;50.672;7.164;2023-10-13T01:12:30;34795.19;;;-140.95;81.38
38054;BME280;23859;50.672;7.164;2023-10-13T01:14:57;34811.28;;;-140.95;81.52
38054;BME280;23859;50.672;7.164;2023-10-13T01:17:25;34791.19;;;-140.95;81.03
38054;BME280;23859;50.672;7.164;2023-10-13T01:19:55;34789.19;;;-140.95;80.82
38054;BME280;23859;50.672;7.164;2023-10-13T01:22:24;34775.13;;;-140.95;81.12
38054;BME280;23859;50.672;7.164;2023-10-13T01:24:50;34803.25;;;-140.95;81.36
38054;BME280;23859;50.672;7.164;2023-10-13T01:27:17;34787.16;;;-140.95;81.35
38054;BME280;23859;50.672;7.164;2023-10-13T01:29:47;34797.22;;;-140.95;80.89
38054;BME280;23859;50.672;7.164;2023-10-13T01:32:22;34785.16;;;-140.95;80.84
38054;BME280;23859;50.672;7.164;2023-10-13T01:34:49;34789.19;;;-140.95;80.99
38054;BME280;23859;50.672;7.164;2023-10-13T01:37:16;34771.09;;;-140.95;81.24
38054;BME280;23859;50.672;7.164;2023-10-13T01:39:42;34791.19;;;-140.95;80.79
38054;BME280;23859;50.672;7.164;2023-10-13T01:42:13;34771.09;;;-140.95;80.89
38054;BME280;23859;50.672;7.164;2023-10-13T01:44:45;34791.19;;;-140.95;81.00
38054;BME280;23859;50.672;7.164;2023-10-13T01:47:11;34791.19;;;-140.95;81.15
38054;BME280;23859;50.672;7.164;2023-10-13T01:49:38;34767.09;;;-140.95;80.84
38054;BME280;23859;50.672;7.164;2023-10-13T01:52:08;34767.09;;;-140.95;80.86
38054;BME280;23859;50.672;7.164;2023-10-13T01:54:37;34759.03;;;-140.95;80.65
38054;BME280;23859;50.672;7.164;2023-10-13T01:57:10;34763.06;;;-140.95;80.34
38054;BME280;23859;50.672;7.164;2023-10-13T01:59:48;34791.19;;;-140.95;80.71
38054;BME280;23859;50.672;7.164;2023-10-13T02:02:14;34771.09;;;-140.95;80.60
38054;BME280;23859;50.672;7.164;2023-10-13T02:04:45;34769.09;;;-140.95;80.37
38054;BME280;23859;50.672;7.164;2023-10-13T02:07:29;34759.03;;;-140.95;80.51
38054;BME280;23859;50.672;7.164;2023-10-13T02:09:56;34767.09;;;-140.95;80.22
38054;BME280;23859;50.672;7.164;2023-10-13T02:12:22;34724.91;;;-140.95;80.07
38054;BME280;23859;50.672;7.164;2023-10-13T02:14:54;34730.94;;;-140.95;80.22
38054;BME280;23859;50.672;7.164;2023-10-13T02:17:20;34757.03;;;-140.95;80.65
38054;BME280;23859;50.672;7.164;2023-10-13T02:19:47;34726.91;;;-140.95;80.53
38054;BME280;23859;50.672;7.164;2023-10-13T02:22:14;35032.22;;;-140.95;80.20
38054;BME280;23859;50.672;7.164;2023-10-13T02:24:57;34726.91;;;-140.95;80.25
38054;BME280;23859;50.672;7.164;2023-10-13T02:27:27;34873.53;;;-140.95;80.15
38054;BME280;23859;50.672;7.164;2023-10-13T02:29:54;34765.06;;;-140.95;80.72
38054;BME280;23859;50.672;7.164;2023-10-13T02:32:24;34738.97;;;-140.95;80.60
38054;BME280;23859;50.672;7.164;2023-10-13T02:34:52;34755.03;;;-140.95;80.68
38054;BME280;23859;50.672;7.164;2023-10-13T02:37:18;34747.00;;;-140.95;80.60
38054;BME280;23859;50.672;7.164;2023-10-13T02:39:45;34744.97;;;-140.95;80.48
38054;BME280;23859;50.672;7.164;2023-10-13T02:42:11;34742.97;;;-140.95;79.91
38054;BME280;23859;50.672;7.164;2023-10-13T02:45:07;34702.81;;;-140.95;79.96
38054;BME280;23859;50.672;7.164;2023-10-13T02:47:37;34738.97;;;-140.95;79.71
38054;BME280;23859;50.672;7.164;2023-10-13T02:50:03;34726.91;;;-140.95;79.74
38054;BME280;23859;50.672;7.164;2023-10-13T02:52:37;34692.75;;;-140.95;79.88
38054;BME280;23859;50.672;7.164;2023-10-13T02:55:07;34714.84;;;-140.95;80.05
38054;BME280;23859;50.672;7.164;2023-10-13T02:57:40;34704.81;;;-140.95;79.53
38054;BME280;23859;50.672;7.164;2023-10-13T03:00:07;34728.91;;;-140.95;79.91
38054;BME280;23859;50.672;7.164;2023-10-13T03:02:41;34698.78;;;-140.95;80.12
38054;BME280;23859;50.672;7.164;2023-10-13T03:05:21;34686.72;;;-140.95;79.69
38054;BME280;23859;50.672;7.164;2023-10-13T03:07:48;34706.81;;;-140.95;80.01
38054;BME280;23859;50.672;7.164;2023-10-13T03:10:16;34686.72;;;-140.95;80.03
38054;BME280;23859;50.672;7.164;2023-10-13T03:12:45;34682.72;;;-140.95;80.04
38054;BME280;23859;50.672;7.164;2023-10-13T03:15:14;34726.91;;;-140.95;80.17
38054;BME280;23859;50.672;7.164;2023-10-13T03:17:44;34698.78;;;-140.95;79.64
38054;BME280;23859;50.672;7.164;2023-10-13T03:20:19;34688.75;;;-140.95;79.99
38054;BME280;23859;50.672;7.164;2023-10-13T03:22:49;34702.81;;;-140.95;80.52
38054;BME280;23859;50.672;7.164;2023-10-13T03:25:18;34710.84;;;-140.95;80.81
38054;BME280;23859;50.672;7.164;2023-10-13T03:27:56;34706.81;;;-140.95;80.93
38054;BME280;23859;50.672;7.164;2023-10-13T03:30:22;34698.78;;;-140.95;81.10
38054;BME280;23859;50.672;7.164;2023-10-13T03:32:56;34734.94;;;-140.95;80.45
38054;BME280;23859;50.672;7.164;2023-10-13T03:35:22;34710.84;;;-140.95;80.71
38054;BME280;23859;50.672;7.164;2023-10-13T03:37:56;34702.81;;;-140.95;80.69
38054;BME280;23859;50.672;7.164;2023-10-13T03:40:23;34700.78;;;-140.95;80.63
38054;BME280;23859;50.672;7.164;2023-10-13T03:45:38;34712.84;;;-140.95;80.84
38054;BME280;23859;50.672;7.164;2023-10-13T03:48:09;34690.75;;;-140.95;80.82
38054;BME280;23859;50.672;7.164;2023-10-13T03:50:40;34714.84;;;-140.95;81.41
38054;BME280;23859;50.672;7.164;2023-10-13T03:53:12;34714.84;;;-140.95;81.40
38054;BME280;23859;50.672;7.164;2023-10-13T03:55:39;34740.97;;;-140.95;81.25
38054;BME280;23859;50.672;7.164;2023-10-13T03:58:05;34706.81;;;-140.95;81.39
38054;BME280;23859;50.672;7.164;2023-10-13T04:00:33;34757.03;;;-140.95;81.65
38054;BME280;23859;50.672;7.164;2023-10-13T04:02:59;34710.84;;;-140.95;81.53
38054;BME280;23859;50.672;7.164;2023-10-13T04:05:28;34734.94;;;-140.95;81.75
38054;BME280;23859;50.672;7.164;2023-10-13T04:08:06;34734.94;;;-140.95;81.65
38054;BME280;23859;50.672;7.164;2023-10-13T04:10:53;34690.75;;;-140.95;82.05
38054;BME280;23859;50.672;7.164;2023-10-13T04:13:19;34738.97;;;-140.95;81.93
38054;BME280;23859;50.672;7.164;2023-10-13T04:16:06;34734.94;;;-140.95;81.91
38054;BME280;23859;50.672;7.164;2023-10-13T04:18:48;34696.78;;;-140.95;81.64
38054;BME280;23859;50.672;7.164;2023-10-13T04:21:23;34706.81;;;-140.95;81.41
38054;BME280;23859;50.672;7.164;2023-10-13T04:24:12;34684.72;;;-140.95;81.58
38054;BME280;23859;50.672;7.164;2023-10-13T04:26:49;34690.75;;;-140.95;81.18
38054;BME280;23859;50.672;7.164;2023-10-13T04:29:34;34670.66;;;-140.95;80.67
38054;BME280;23859;50.672;7.164;2023-10-13T04:32:12;34658.63;;;-140.95;80.60
38054;BME280;23859;50.672;7.164;2023-10-13T04:34:44;34658.63;;;-140.95;80.19
38054;BME280;23859;50.672;7.164;2023-10-13T04:37:17;34644.56;;;-140.95;80.51
38054;BME280;23859;50.672;7.164;2023-10-13T04:40:09;34646.56;;;-140.95;80.59
38054;BME280;23859;50.672;7.164;2023-10-13T04:42:36;34666.66;;;-140.95;80.36
38054;BME280;23859;50.672;7.164;2023-10-13T04:45:23;34668.66;;;-140.95;79.96
38054;BME280;23859;50.672;7.164;2023-10-13T04:48:09;34630.50;;;-140.95;79.84
38054;BME280;23859;50.672;7.164;2023-10-13T04:50:49;34562.19;;;-140.95;79.74
38054;BME280;23859;50.672;7.164;2023-10-13T04:53:24;34622.47;;;-140.95;79.89
38054;BME280;23859;50.672;7.164;2023-10-13T04:56:00;34634.50;;;-140.95;79.93
38054;BME280;23859;50.672;7.164;2023-10-13T04:58:30;34636.53;;;-140.95;79.81
38054;BME280;23859;50.672;7.164;2023-10-13T05:01:02;34634.50;;;-140.95;80.20
38054;BME280;23859;50.672;7.164;2023-10-13T05:03:48;34634.50;;;-140.95;79.95
38054;BME280;23859;50.672;7.164;2023-10-13T05:06:32;34634.50;;;-140.95;79.99
38054;BME280;23859;50.672;7.164;2023-10-13T05:09:08;34638.53;;;-140.95;79.79
38054;BME280;23859;50.672;7.164;2023-10-13T05:11:52;34584.28;;;-140.95;79.97
38054;BME280;23859;50.672;7.164;2023-10-13T05:14:38;34586.31;;;-140.95;79.79
38054;BME280;23859;50.672;7.164;2023-10-13T05:17:22;34612.41;;;-140.95;79.68
38054;BME280;23859;50.672;7.164;2023-10-13T05:20:07;34596.34;;;-140.95;79.91
38054;BME280;23859;50.672;7.164;2023-10-13T05:22:53;34620.44;;;-140.95;79.71
38054;BME280;23859;50.672;7.164;2023-10-13T05:25:38;34608.41;;;-140.95;79.66
38054;BME280;23859;50.672;7.164;2023-10-13T05:28:23;34590.31;;;-140.95;79.80
38054;BME280;23859;50.672;7.164;2023-10-13T05:31:08;34614.44;;;-140.95;80.07
38054;BME280;23859;50.672;7.164;2023-10-13T05:33:52;34622.47;;;-140.95;80.09
38054;BME280;23859;50.672;7.164;2023-10-13T05:36:37;34622.47;;;-140.95;79.89
38054;BME280;23859;50.672;7.164;2023-10-13T05:39:23;34600.38;;;-140.95;80.03
38054;BME280;23859;50.672;7.164;2023-10-13T05:42:08;34608.41;;;-140.95;79.57
38054;BME280;23859;50.672;7.164;2023-10-13T05:44:52;34596.34;;;-140.95;80.04
38054;BME280;23859;50.672;7.164;2023-10-13T05:47:37;34620.44;;;-140.95;79.88
38054;BME280;23859;50.672;7.164;2023-10-13T05:50:13;34604.38;;;-140.95;79.91
38054;BME280;23859;50.672;7.164;2023-10-13T05:52:48;34614.44;;;-140.95;80.23
38054;BME280;23859;50.672;7.164;2023-10-13T05:55:25;34562.19;;;-140.95;80.05
38054;BME280;23859;50.672;7.164;2023-10-13T05:58:11;34590.31;;;-140.95;79.82
38054;BME280;23859;50.672;7.164;2023-10-13T06:00:56;34584.28;;;-140.95;79.50
38054;BME280;23859;50.672;7.164;2023-10-13T06:03:40;34576.25;;;-140.95;79.67
38054;BME280;23859;50.672;7.164;2023-10-13T06:06:25;34566.22;;;-140.95;79.87
38054;BME280;23859;50.672;7.164;2023-10-13T06:09:10;34548.16;;;-140.95;78.95
38054;BME280;23859;50.672;7.164;2023-10-13T06:11:54;34554.16;;;-140.95;79.46
38054;BME280;23859;50.672;7.164;2023-10-13T06:14:39;34542.13;;;-140.95;79.18
38054;BME280;23859;50.672;7.164;2023-10-13T06:17:24;34546.13;;;-140.95;78.98
38054;BME280;23859;50.672;7.164;2023-10-13T06:20:09;34550.16;;;-140.95;78.91
38054;BME280;23859;50.672;7.164;2023-10-13T06:22:54;34815.28;;;-140.95;78.08
38054;BME280;23859;50.672;7.164;2023-10-13T06:25:39;34497.94;;;-140.95;77.86
38054;BME280;23859;50.672;7.164;2023-10-13T06:28:23;34449.72;;;-140.95;76.98
38054;BME280;23859;50.672;7.164;2023-10-13T06:31:11;34385.47;;;-140.95;76.07
38054;BME280;23859;50.672;7.164;2023-10-13T06:33:57;34369.38;;;-140.95;76.18
38054;BME280;23859;50.672;7.164;2023-10-13T06:36:23;34381.44;;;-140.95;75.69
38054;BME280;23859;50.672;7.164;2023-10-13T06:38:49;34347.28;;;-140.95;75.40
38054;BME280;23859;50.672;7.164;2023-10-13T06:41:21;34347.28;;;-140.95;75.55
38054;BME280;23859;50.672;7.164;2023-10-13T06:43:56;34347.28;;;-140.95;75.31
38054;BME280;23859;50.672;7.164;2023-10-13T06:46:26;34359.34;;;-140.95;75.71
38054;BME280;23859;50.672;7.164;2023-10-13T06:48:54;34369.38;;;-140.95;75.60
38054;BME280;23859;50.672;7.164;2023-10-13T06:51:21;34309.13;;;-140.95;74.84
38054;BME280;23859;50.672;7.164;2023-10-13T06:53:56;34307.13;;;-140.95;75.28
38054;BME280;23859;50.672;7.164;2023-10-13T06:56:23;34297.09;;;-140.95;74.94
38054;BME280;23859;50.672;7.164;2023-10-13T06:58:55;34337.25;;;-140.95;75.12
38054;BME280;23859;50.672;7.164;2023-10-13T07:01:32;34373.41;;;-140.95;75.72
38054;BME280;23859;50.672;7.164;2023-10-13T07:04:08;34391.47;;;-140.95;75.44
38054;BME280;23859;50.672;7.164;2023-10-13T07:06:42;34357.34;;;-140.95;75.54
38054;BME280;23859;50.672;7.164;2023-10-13T07:09:14;34341.28;;;-140.95;75.19
38054;BME280;23859;50.672;7.164;2023-10-13T07:12:00;34337.25;;;-140.95;74.59
38054;BME280;23859;50.672;7.164;2023-10-13T07:14:29;34353.31;;;-140.95;75.17
38054;BME280;23859;50.672;7.164;2023-10-13T07:17:04;34367.38;;;-140.95;75.28
38054;BME280;23859;50.672;7.164;2023-10-13T07:19:31;34321.19;;;-140.95;75.07
38054;BME280;23859;50.672;7.164;2023-10-13T07:22:00;34335.25;;;-140.95;75.35
38054;BME280;23859;50.672;7.164;2023-10-13T07:24:45;34317.16;;;-140.95;74.95
38054;BME280;23859;50.672;7.164;2023-10-13T07:27:18;34305.13;;;-140.95;74.49
38054;BME280;23859;50.672;7.164;2023-10-13T07:29:53;34279.00;;;-140.95;74.63
38054;BME280;23859;50.672;7.164;2023-10-13T07:32:31;34275.00;;;-140.95;74.30
38054;BME280;23859;50.672;7.164;2023-10-13T07:34:59;34238.84;;;-140.95;73.56
38054;BME280;23859;50.672;7.164;2023-10-13T07:37:37;34258.94;;;-140.95;73.17
38054;BME280;23859;50.672;7.164;2023-10-13T07:40:08;34196.66;;;-140.95;72.25
38054;BME280;23859;50.672;7.164;2023-10-13T07:42:48;34156.50;;;-140.95;72.05
38054;BME280;23859;50.672;7.164;2023-10-13T07:45:23;34196.66;;;-140.95;71.71
38054;BME280;23859;50.672;7.164;2023-10-13T07:47:51;34176.59;;;-140.95;71.12
38054;BME280;23859;50.672;7.164;2023-10-13T07:50:17;34188.63;;;-140.95;71.20
38054;BME280;23859;50.672;7.164;2023-10-13T07:52:51;34148.47;;;-140.95;71.10
38054;BME280;23859;50.672;7.164;2023-10-13T07:55:36;34168.56;;;-140.95;70.88
38054;BME280;23859;50.672;7.164;2023-10-13T07:58:04;34208.72;;;-140.95;71.39
38054;BME280;23859;50.672;7.164;2023-10-13T08:00:33;34168.56;;;-140.95;70.73
38054;BME280;23859;50.672;7.164;2023-10-13T08:03:12;34214.75;;;-140.95;70.19
38054;BME280;23859;50.672;7.164;2023-10-13T08:05:44;34194.66;;;-140.95;70.31
38054;BME280;23859;50.672;7.164;2023-10-13T08:08:26;34184.63;;;-140.95;70.68
38054;BME280;23859;50.672;7.164;2023-10-13T08:10:58;34194.66;;;-140.95;70.37
38054;BME280;23859;50.672;7.164;2023-10-13T08:13:35;34461.78;;;-140.95;69.78
38054;BME280;23859;50.672;7.164;2023-10-13T08:16:03;34160.50;;;-140.95;70.13
38054;BME280;23859;50.672;7.164;2023-10-13T08:18:35;34158.50;;;-140.95;69.04
38054;BME280;23859;50.672;7.164;2023-10-13T08:21:02;34152.47;;;-140.95;69.01
38054;BME280;23859;50.672;7.164;2023-10-13T08:23:32;34122.34;;;-140.95;68.08
38054;BME280;23859;50.672;7.164;2023-10-13T08:26:18;34080.19;;;-140.95;67.54
38054;BME280;23859;50.672;7.164;2023-10-13T08:29:03;34152.47;;;-140.95;67.96
38054;BME280;23859;50.672;7.164;2023-10-13T08:31:51;34102.28;;;-140.95;68.17
38054;BME280;23859;50.672;7.164;2023-10-13T08:34:30;34134.41;;;-140.95;67.93
38054;BME280;23859;50.672;7.164;2023-10-13T08:37:05;34164.53;;;-140.95;67.78
38054;BME280;23859;50.672;7.164;2023-10-13T08:39:59;34152.47;;;-140.95;67.26
38054;BME280;23859;50.672;7.164;2023-10-13T08:42:35;34172.56;;;-140.95;68.21
38054;BME280;23859;50.672;7.164;2023-10-13T08:45:16;34248.88;;;-140.95;68.98
38054;BME280;23859;50.672;7.164;2023-10-13T08:48:08;34222.78;;;-140.95;68.77
38054;BME280;23859;50.672;7.164;2023-10-13T08:50:48;34208.72;;;-140.95;68.40
38054;BME280;23859;50.672;7.164;2023-10-13T08:53:26;34212.72;;;-140.95;67.65
38054;BME280;23859;50.672;7.164;2023-10-13T08:56:08;34212.72;;;-140.95;67.07
38054;BME280;23859;50.672;7.164;2023-10-13T08:58:45;34214.75;;;-140.95;67.41
38054;BME280;23859;50.672;7.164;2023-10-13T09:01:29;34164.53;;;-140.95;66.33
38054;BME280;23859;50.672;7.164;2023-10-13T09:07:01;34180.59;;;-140.95;66.01
38054;BME280;23859;50.672;7.164;2023-10-13T09:09:46;34188.63;;;-140.95;66.14
38054;BME280;23859;50.672;7.164;2023-10-13T09:14:41;34142.44;;;-140.95;64.78
38054;BME280;23859;50.672;7.164;2023-10-13T09:17:11;34140.44;;;-140.95;63.03
38054;BME280;23859;50.672;7.164;2023-10-13T09:19:52;34048.06;;;-140.95;61.77
38054;BME280;23859;50.672;7.164;2023-10-13T09:22:28;34019.94;;;-140.95;60.21
38054;BME280;23859;50.672;7.164;2023-10-13T09:25:04;33985.78;;;-140.95;59.21
38054;BME280;23859;50.672;7.164;2023-10-13T09:27:39;34200.69;;;-140.95;57.25
38054;BME280;23859;50.672;7.164;2023-10-13T09:30:06;33891.41;;;-140.95;57.52
38054;BME280;23859;50.672;7.164;2023-10-13T09:33:02;33801.03;;;-140.95;56.92
38054;BME280;23859;50.672;7.164;2023-10-13T09:35:31;33799.03;;;-140.95;56.69
38054;BME280;23859;50.672;7.164;2023-10-13T09:38:00;33744.81;;;-140.95;54.24
38054;BME280;23859;50.672;7.164;2023-10-13T09:40:30;33746.81;;;-140.95;54.97
38054;BME280;23859;50.672;7.164;2023-10-13T09:43:00;33714.69;;;-140.95;54.21
38054;BME280;23859;50.672;7.164;2023-10-13T09:45:32;33646.41;;;-140.95;56.04
38054;BME280;23859;50.672;7.164;2023-10-13T09:51:00;33696.63;;;-140.95;54.22
38054;BME280;23859;50.672;7.164;2023-10-13T09:53:27;33620.31;;;-140.95;52.64
38054;BME280;23859;50.672;7.164;2023-10-13T09:58:39;33614.28;;;-140.95;54.60
38054;BME280;23859;50.672;7.164;2023-10-13T10:01:16;33642.41;;;-140.95;52.57
38054;BME280;23859;50.672;7.164;2023-10-13T10:04:07;33537.97;;;-140.95;52.53
38054;BME280;23859;50.672;7.164;2023-10-13T10:06:36;33513.88;;;-140.95;52.57
38054;BME280;23859;50.672;7.164;2023-10-13T10:09:07;33477.75;;;-140.95;51.06
38054;BME280;23859;50.672;7.164;2023-10-13T10:11:52;33429.56;;;-140.95;51.56
38054;BME280;23859;50.672;7.164;2023-10-13T10:17:07;33353.25;;;-140.95;49.27
38054;BME280;23859;50.672;7.164;2023-10-13T10:19:47;33345.22;;;-140.95;50.63
38054;BME280;23859;50.672;7.164;2023-10-13T10:22:13;33387.38;;;-140.95;49.82
38054;BME280;23859;50.672;7.164;2023-10-13T10:24:56;33337.19;;;-140.95;48.72
38054;BME280;23859;50.672;7.164;2023-10-13T10:27:31;33293.00;;;-140.95;49.48
38054;BME280;23859;50.672;7.164;2023-10-13T10:29:58;33323.13;;;-140.95;48.73
38054;BME280;23859;50.672;7.164;2023-10-13T10:32:42;33284.97;;;-140.95;49.17
38054;BME280;23859;50.672;7.164;2023-10-13T10:35:14;33311.09;;;-140.95;49.00
38054;BME280;23859;50.672;7.164;2023-10-13T10:37:42;33220.72;;;-140.95;49.23
38054;BME280;23859;50.672;7.164;2023-10-13T10:40:17;33198.63;;;-140.95;48.32
38054;BME280;23859;50.672;7.164;2023-10-13T10:43:02;33248.84;;;-140.95;48.05
38054;BME280;23859;50.672;7.164;2023-10-13T10:45:36;33204.66;;;-140.95;48.69
38054;BME280;23859;50.672;7.164;2023-10-13T10:48:04;33230.75;;;-140.95;48.27
38054;BME280;23859;50.672;7.164;2023-10-13T10:50:44;33168.53;;;-140.95;47.83
38054;BME280;23859;50.672;7.164;2023-10-13T10:53:20;33194.63;;;-140.95;47.99
38054;BME280;23859;50.672;7.164;2023-10-13T10:55:48;33132.38;;;-140.95;47.72
38054;BME280;23859;50.672;7.164;2023-10-13T10:58:14;33148.44;;;-140.95;47.07
38054;BME280;23859;50.672;7.164;2023-10-13T11:01:06;33106.28;;;-140.95;47.19
38054;BME280;23859;50.672;7.164;2023-10-13T11:03:37;33102.25;;;-140.95;46.93
38054;BME280;23859;50.672;7.164;2023-10-13T11:06:12;33122.34;;;-140.95;47.47
38054;BME280;23859;50.672;7.164;2023-10-13T11:08:43;33080.19;;;-140.95;47.27
38054;BME280;23859;50.672;7.164;2023-10-13T11:11:16;33019.94;;;-140.95;46.76
38054;BME280;23859;50.672;7.164;2023-10-13T11:13:44;33036.00;;;-140.95;46.28
38054;BME280;23859;50.672;7.164;2023-10-13T11:16:22;33007.91;;;-140.95;46.76
38054;BME280;23859;50.672;7.164;2023-10-13T11:19:03;33017.94;;;-140.95;45.19
38054;BME280;23859;50.672;7.164;2023-10-13T11:21:31;33025.97;;;-140.95;44.79
38054;BME280;23859;50.672;7.164;2023-10-13T11:23:57;33034.00;;;-140.95;45.57
38054;BME280;23859;50.672;7.164;2023-10-13T11:26:38;32999.88;;;-140.95;46.03
38054;BME280;23859;50.672;7.164;2023-10-13T11:29:18;33019.94;;;-140.95;44.55
38054;BME280;23859;50.672;7.164;2023-10-13T11:31:48;33124.34;;;-140.95;45.46
38054;BME280;23859;50.672;7.164;2023-10-13T11:34:24;33104.28;;;-140.95;45.64
38054;BME280;23859;50.672;7.164;2023-10-13T11:36:51;33068.13;;;-140.95;45.58
38054;BME280;23859;50.672;7.164;2023-10-13T11:39:18;33080.19;;;-140.95;45.22
38054;BME280;23859;50.672;7.164;2023-10-13T11:41:56;33136.41;;;-140.95;45.23
38054;BME280;23859;50.672;7.164;2023-10-13T11:44:22;33140.41;;;-140.95;45.44
38054;BME280;23859;50.672;7.164;2023-10-13T11:46:49;33124.34;;;-140.95;44.87
38054;BME280;23859;50.672;7.164;2023-10-13T11:49:22;33124.34;;;-140.95;45.07
38054;BME280;23859;50.672;7.164;2023-10-13T11:51:54;33102.25;;;-140.95;45.05
38054;BME280;23859;50.672;7.164;2023-10-13T11:54:39;32993.84;;;-140.95;44.99
38054;BME280;23859;50.672;7.164;2023-10-13T11:57:07;33072.16;;;-140.95;44.51
38054;BME280;23859;50.672;7.164;2023-10-13T11:59:34;33096.25;;;-140.95;43.72
38054;BME280;23859;50.672;7.164;2023-10-13T12:02:02;33029.97;;;-140.95;43.51
38054;BME280;23859;50.672;7.164;2023-10-13T12:04:47;32987.81;;;-140.95;43.31
38054;BME280;23859;50.672;7.164;2023-10-13T12:07:23;32991.84;;;-140.95;43.59
38054;BME280;23859;50.672;7.164;2023-10-13T12:09:53;32983.81;;;-140.95;43.50
38054;BME280;23859;50.672;7.164;2023-10-13T12:12:22;32901.50;;;-140.95;43.21
38054;BME280;23859;50.672;7.164;2023-10-13T12:14:49;32897.47;;;-140.95;43.33
38054;BME280;23859;50.672;7.164;2023-10-13T12:17:19;32895.47;;;-140.95;42.52
38054;BME280;23859;50.672;7.164;2023-10-13T12:19:52;32779.03;;;-140.95;43.24
38054;BME280;23859;50.672;7.164;2023-10-13T12:22:18;32760.97;;;-140.95;42.60
38054;BME280;23859;50.672;7.164;2023-10-13T12:24:53;32855.31;;;-140.95;42.84
38054;BME280;23859;50.672;7.164;2023-10-13T12:27:22;32807.13;;;-140.95;41.89
38054;BME280;23859;50.672;7.164;2023-10-13T12:30:00;32738.88;;;-140.95;41.17
38054;BME280;23859;50.672;7.164;2023-10-13T12:32:33;32714.78;;;-140.95;41.25
38054;BME280;23859;50.672;7.164;2023-10-13T12:35:00;32722.81;;;-140.95;41.32
38054;BME280;23859;50.672;7.164;2023-10-13T12:37:32;32702.72;;;-140.95;40.19
38054;BME280;23859;50.672;7.164;2023-10-13T12:40:05;32716.78;;;-140.95;41.45
38054;BME280;23859;50.672;7.164;2023-10-13T12:42:50;32726.81;;;-140.95;41.38
38054;BME280;23859;50.672;7.164;2023-10-13T12:45:44;32887.44;;;-140.95;42.68
38054;BME280;23859;50.672;7.164;2023-10-13T12:48:30;32929.59;;;-140.95;42.26
38054;BME280;23859;50.672;7.164;2023-10-13T12:51:15;32951.69;;;-140.95;42.23
38054;BME280;23859;50.672;7.164;2023-10-13T12:54:06;32979.78;;;-140.95;41.69
38054;BME280;23859;50.672;7.164;2023-10-13T12:56:46;32979.78;;;-140.95;42.58
38054;BME280;23859;50.672;7.164;2023-10-13T12:59:12;32957.72;;;-140.95;42.68
38054;BME280;23859;50.672;7.164;2023-10-13T13:01:41;32939.63;;;-140.95;41.48
38054;BME280;23859;50.672;7.164;2023-10-13T13:04:11;32943.66;;;-140.95;41.98
38054;BME280;23859;50.672;7.164;2023-10-13T13:06:44;32879.41;;;-140.95;41.83
38054;BME280;23859;50.672;7.164;2023-10-13T13:09:10;32927.59;;;-140.95;42.08
38054;BME280;23859;50.672;7.164;2023-10-13T13:11:36;32951.69;;;-140.95;42.35
38054;BME280;23859;50.672;7.164;2023-10-13T13:14:09;32943.66;;;-140.95;41.85
38054;BME280;23859;50.672;7.164;2023-10-13T13:16:36;32999.88;;;-140.95;41.72
38054;BME280;23859;50.672;7.164;2023-10-13T13:19:05;33007.91;;;-140.95;42.00
38054;BME280;23859;50.672;7.164;2023-10-13T13:21:40;33011.91;;;-140.95;42.66
38054;BME280;23859;50.672;7.164;2023-10-13T13:24:06;33080.19;;;-140.95;41.93
38054;BME280;23859;50.672;7.164;2023-10-13T13:26:40;33025.97;;;-140.95;42.04
38054;BME280;23859;50.672;7.164;2023-10-13T13:29:08;33108.28;;;-140.95;42.97
38054;BME280;23859;50.672;7.164;2023-10-13T13:31:37;33120.34;;;-140.95;41.97
38054;BME280;23859;50.672;7.164;2023-10-13T13:34:10;33070.13;;;-140.95;42.82